sensor_id;sensor_type;location;lat;lon;timestamp;P1;durP1;ratioP1;P2;durP2;ratioP2
3789;SDS011;1910;49.042;9.028;2022-07-23T00:00:15;14.53;;;8.27;;
3789;SDS011;1910;49.042;9.028;2022-07-23T00:02:41;11.47;;;7.53;;
3789;SDS011;1910;49.042;9.028;2022-07-23T00:05:07;10.97;;;8.03;;
3789;SDS011;1910;49.042;9.028;2022-07-23T00:07:35;10.00;;;7.30;;
3789;SDS011;1910;49.042;9.028;2022-07-23T00:10:02;8.60;;;7.80;;
3789;SDS011;1910;49.042;9.028;2022-07-23T00:12:28;13.87;;;7.73;;
3789;SDS011;1910;49.042;9.028;2022-07-23T00:14:54;8.67;;;7.73;;
3789;SDS011;1910;49.042;9.028;2022-07-23T00:17:20;8.53;;;7.70;;
3789;SDS011;1910;49.042;9.028;2022-07-23T00:19:45;8.30;;;7.50;;
3789;SDS011;1910;49.042;9.028;2022-07-23T00:22:11;9.80;;;8.70;;
3789;SDS011;1910;49.042;9.028;2022-07-23T00:24:36;8.73;;;7.63;;
3789;SDS011;1910;49.042;9.028;2022-07-23T00:27:04;9.13;;;7.10;;
3789;SDS011;1910;49.042;9.028;2022-07-23T00:29:30;9.40;;;7.17;;
3789;SDS011;1910;49.042;9.028;2022-07-23T00:31:55;10.10;;;9.00;;
3789;SDS011;1910;49.042;9.028;2022-07-23T00:34:21;8.40;;;7.50;;
3789;SDS011;1910;49.042;9.028;2022-07-23T00:36:46;8.00;;;7.20;;
3789;SDS011;1910;49.042;9.028;2022-07-23T00:39:12;10.43;;;8.10;;
3789;SDS011;1910;49.042;9.028;2022-07-23T00:41:38;10.10;;;8.13;;
3789;SDS011;1910;49.042;9.028;2022-07-23T00:44:20;8.80;;;7.37;;
3789;SDS011;1910;49.042;9.028;2022-07-23T00:46:48;8.87;;;8.00;;
3789;SDS011;1910;49.042;9.028;2022-07-23T00:49:26;8.27;;;7.40;;
3789;SDS011;1910;49.042;9.028;2022-07-23T00:51:52;9.10;;;7.80;;
3789;SDS011;1910;49.042;9.028;2022-07-23T00:54:19;9.43;;;8.53;;
3789;SDS011;1910;49.042;9.028;2022-07-23T00:56:48;9.53;;;8.57;;
3789;SDS011;1910;49.042;9.028;2022-07-23T00:59:13;9.67;;;8.67;;
3789;SDS011;1910;49.042;9.028;2022-07-23T01:01:39;8.47;;;7.57;;
3789;SDS011;1910;49.042;9.028;2022-07-23T01:04:05;8.90;;;8.10;;
3789;SDS011;1910;49.042;9.028;2022-07-23T01:06:34;15.57;;;9.37;;
3789;SDS011;1910;49.042;9.028;2022-07-23T01:09:02;10.10;;;8.97;;
3789;SDS011;1910;49.042;9.028;2022-07-23T01:11:29;10.20;;;8.20;;
3789;SDS011;1910;49.042;9.028;2022-07-23T01:13:55;9.83;;;8.17;;
3789;SDS011;1910;49.042;9.028;2022-07-23T01:16:21;10.97;;;8.37;;
3789;SDS011;1910;49.042;9.028;2022-07-23T01:18:46;9.53;;;8.30;;
3789;SDS011;1910;49.042;9.028;2022-07-23T01:21:13;8.90;;;8.00;;
3789;SDS011;1910;49.042;9.028;2022-07-23T01:23:39;11.83;;;8.67;;
3789;SDS011;1910;49.042;9.028;2022-07-23T01:26:05;9.37;;;8.37;;
3789;SDS011;1910;49.042;9.028;2022-07-23T01:28:30;9.47;;;8.00;;
3789;SDS011;1910;49.042;9.028;2022-07-23T01:30:56;11.93;;;8.20;;
3789;SDS011;1910;49.042;9.028;2022-07-23T01:33:22;10.00;;;9.10;;
3789;SDS011;1910;49.042;9.028;2022-07-23T01:35:48;9.20;;;7.90;;
3789;SDS011;1910;49.042;9.028;2022-07-23T01:38:14;8.73;;;7.83;;
3789;SDS011;1910;49.042;9.028;2022-07-23T01:40:40;11.07;;;8.60;;
3789;SDS011;1910;49.042;9.028;2022-07-23T01:43:06;8.80;;;7.90;;
3789;SDS011;1910;49.042;9.028;2022-07-23T01:45:31;10.57;;;8.43;;
3789;SDS011;1910;49.042;9.028;2022-07-23T01:47:57;9.77;;;8.40;;
3789;SDS011;1910;49.042;9.028;2022-07-23T01:50:23;8.47;;;7.63;;
3789;SDS011;1910;49.042;9.028;2022-07-23T01:52:48;9.57;;;7.63;;
3789;SDS011;1910;49.042;9.028;2022-07-23T01:55:14;9.80;;;8.80;;
3789;SDS011;1910;49.042;9.028;2022-07-23T01:57:40;9.97;;;8.97;;
3789;SDS011;1910;49.042;9.028;2022-07-23T02:00:06;10.10;;;9.10;;
3789;SDS011;1910;49.042;9.028;2022-07-23T02:02:32;11.20;;;8.43;;
3789;SDS011;1910;49.042;9.028;2022-07-23T02:04:57;12.27;;;8.20;;
3789;SDS011;1910;49.042;9.028;2022-07-23T02:07:23;9.67;;;8.67;;
3789;SDS011;1910;49.042;9.028;2022-07-23T02:09:49;9.50;;;8.40;;
3789;SDS011;1910;49.042;9.028;2022-07-23T02:12:15;8.83;;;7.90;;
3789;SDS011;1910;49.042;9.028;2022-07-23T02:14:41;12.40;;;8.57;;
3789;SDS011;1910;49.042;9.028;2022-07-23T02:17:06;10.30;;;9.30;;
3789;SDS011;1910;49.042;9.028;2022-07-23T02:19:32;10.90;;;9.00;;
3789;SDS011;1910;49.042;9.028;2022-07-23T02:21:58;10.30;;;8.73;;
3789;SDS011;1910;49.042;9.028;2022-07-23T02:24:24;9.80;;;8.80;;
3789;SDS011;1910;49.042;9.028;2022-07-23T02:26:50;9.83;;;8.83;;
3789;SDS011;1910;49.042;9.028;2022-07-23T02:29:16;9.23;;;8.13;;
3789;SDS011;1910;49.042;9.028;2022-07-23T02:31:42;12.47;;;9.60;;
3789;SDS011;1910;49.042;9.028;2022-07-23T02:34:08;14.53;;;9.83;;
3789;SDS011;1910;49.042;9.028;2022-07-23T02:36:36;9.73;;;8.10;;
3789;SDS011;1910;49.042;9.028;2022-07-23T02:39:02;11.07;;;8.70;;
3789;SDS011;1910;49.042;9.028;2022-07-23T02:41:28;10.60;;;8.90;;
3789;SDS011;1910;49.042;9.028;2022-07-23T02:43:53;10.27;;;8.50;;
3789;SDS011;1910;49.042;9.028;2022-07-23T02:46:19;9.50;;;8.60;;
3789;SDS011;1910;49.042;9.028;2022-07-23T02:48:44;12.37;;;8.93;;
3789;SDS011;1910;49.042;9.028;2022-07-23T02:51:10;10.67;;;8.47;;
3789;SDS011;1910;49.042;9.028;2022-07-23T02:53:35;10.63;;;9.03;;
3789;SDS011;1910;49.042;9.028;2022-07-23T02:56:01;13.63;;;9.80;;
3789;SDS011;1910;49.042;9.028;2022-07-23T02:58:27;14.13;;;8.60;;
3789;SDS011;1910;49.042;9.028;2022-07-23T03:00:53;11.73;;;9.50;;
3789;SDS011;1910;49.042;9.028;2022-07-23T03:03:19;15.33;;;8.90;;
3789;SDS011;1910;49.042;9.028;2022-07-23T03:05:45;11.57;;;9.00;;
3789;SDS011;1910;49.042;9.028;2022-07-23T03:08:11;10.13;;;9.13;;
3789;SDS011;1910;49.042;9.028;2022-07-23T03:10:36;10.40;;;9.30;;
3789;SDS011;1910;49.042;9.028;2022-07-23T03:13:02;11.63;;;10.40;;
3789;SDS011;1910;49.042;9.028;2022-07-23T03:15:27;11.33;;;9.30;;
3789;SDS011;1910;49.042;9.028;2022-07-23T03:17:53;11.33;;;7.60;;
3789;SDS011;1910;49.042;9.028;2022-07-23T03:20:18;12.30;;;9.37;;
3789;SDS011;1910;49.042;9.028;2022-07-23T03:22:44;10.63;;;9.53;;
3789;SDS011;1910;49.042;9.028;2022-07-23T03:25:10;13.70;;;11.47;;
3789;SDS011;1910;49.042;9.028;2022-07-23T03:27:36;13.53;;;8.93;;
3789;SDS011;1910;49.042;9.028;2022-07-23T03:30:01;13.20;;;9.97;;
3789;SDS011;1910;49.042;9.028;2022-07-23T03:32:27;13.03;;;9.33;;
3789;SDS011;1910;49.042;9.028;2022-07-23T03:34:54;10.87;;;9.47;;
3789;SDS011;1910;49.042;9.028;2022-07-23T03:37:20;14.33;;;9.97;;
3789;SDS011;1910;49.042;9.028;2022-07-23T03:39:46;11.63;;;9.03;;
3789;SDS011;1910;49.042;9.028;2022-07-23T03:42:12;13.10;;;9.40;;
3789;SDS011;1910;49.042;9.028;2022-07-23T03:44:38;11.03;;;8.90;;
3789;SDS011;1910;49.042;9.028;2022-07-23T03:47:04;11.40;;;9.50;;
3789;SDS011;1910;49.042;9.028;2022-07-23T03:49:31;16.23;;;9.93;;
3789;SDS011;1910;49.042;9.028;2022-07-23T03:51:57;11.90;;;9.40;;
3789;SDS011;1910;49.042;9.028;2022-07-23T03:54:23;8.00;;;7.30;;
3789;SDS011;1910;49.042;9.028;2022-07-23T03:56:49;9.20;;;7.63;;
3789;SDS011;1910;49.042;9.028;2022-07-23T03:59:15;9.23;;;7.87;;
3789;SDS011;1910;49.042;9.028;2022-07-23T04:01:41;9.83;;;8.70;;
3789;SDS011;1910;49.042;9.028;2022-07-23T04:04:07;9.80;;;8.60;;
3789;SDS011;1910;49.042;9.028;2022-07-23T04:06:33;10.30;;;9.00;;
3789;SDS011;1910;49.042;9.028;2022-07-23T04:08:59;12.27;;;9.30;;
3789;SDS011;1910;49.042;9.028;2022-07-23T04:11:25;10.03;;;9.00;;
3789;SDS011;1910;49.042;9.028;2022-07-23T04:13:51;12.70;;;8.80;;
3789;SDS011;1910;49.042;9.028;2022-07-23T04:16:17;12.63;;;9.87;;
3789;SDS011;1910;49.042;9.028;2022-07-23T04:18:43;10.93;;;8.30;;
3789;SDS011;1910;49.042;9.028;2022-07-23T04:21:09;10.03;;;9.00;;
3789;SDS011;1910;49.042;9.028;2022-07-23T04:23:35;9.87;;;8.87;;
3789;SDS011;1910;49.042;9.028;2022-07-23T04:26:01;10.23;;;8.20;;
3789;SDS011;1910;49.042;9.028;2022-07-23T04:28:26;9.20;;;8.07;;
3789;SDS011;1910;49.042;9.028;2022-07-23T04:30:52;8.80;;;7.40;;
3789;SDS011;1910;49.042;9.028;2022-07-23T04:33:17;10.87;;;8.93;;
3789;SDS011;1910;49.042;9.028;2022-07-23T04:35:44;9.60;;;8.23;;
3789;SDS011;1910;49.042;9.028;2022-07-23T04:38:09;7.50;;;6.67;;
3789;SDS011;1910;49.042;9.028;2022-07-23T04:40:35;12.50;;;8.67;;
3789;SDS011;1910;49.042;9.028;2022-07-23T04:43:01;11.40;;;7.83;;
3789;SDS011;1910;49.042;9.028;2022-07-23T04:45:28;12.23;;;8.93;;
3789;SDS011;1910;49.042;9.028;2022-07-23T04:47:54;10.03;;;9.03;;
3789;SDS011;1910;49.042;9.028;2022-07-23T04:50:20;10.27;;;8.07;;
3789;SDS011;1910;49.042;9.028;2022-07-23T04:52:47;12.90;;;8.17;;
3789;SDS011;1910;49.042;9.028;2022-07-23T04:55:13;11.97;;;9.40;;
3789;SDS011;1910;49.042;9.028;2022-07-23T04:57:39;9.17;;;7.93;;
3789;SDS011;1910;49.042;9.028;2022-07-23T05:00:05;8.23;;;7.43;;
3789;SDS011;1910;49.042;9.028;2022-07-23T05:02:32;11.60;;;8.93;;
3789;SDS011;1910;49.042;9.028;2022-07-23T05:04:57;11.50;;;8.03;;
3789;SDS011;1910;49.042;9.028;2022-07-23T05:07:23;9.83;;;7.50;;
3789;SDS011;1910;49.042;9.028;2022-07-23T05:09:49;8.80;;;7.50;;
3789;SDS011;1910;49.042;9.028;2022-07-23T05:12:14;10.77;;;7.90;;
3789;SDS011;1910;49.042;9.028;2022-07-23T05:14:43;8.70;;;7.90;;
3789;SDS011;1910;49.042;9.028;2022-07-23T05:17:09;9.37;;;8.03;;
3789;SDS011;1910;49.042;9.028;2022-07-23T05:19:34;8.80;;;7.90;;
3789;SDS011;1910;49.042;9.028;2022-07-23T05:22:00;10.60;;;8.67;;
3789;SDS011;1910;49.042;9.028;2022-07-23T05:24:26;11.70;;;8.83;;
3789;SDS011;1910;49.042;9.028;2022-07-23T05:26:51;10.80;;;8.83;;
3789;SDS011;1910;49.042;9.028;2022-07-23T05:29:17;9.73;;;8.53;;
3789;SDS011;1910;49.042;9.028;2022-07-23T05:31:43;10.03;;;8.50;;
3789;SDS011;1910;49.042;9.028;2022-07-23T05:34:08;9.83;;;8.83;;
3789;SDS011;1910;49.042;9.028;2022-07-23T05:36:34;11.60;;;9.10;;
3789;SDS011;1910;49.042;9.028;2022-07-23T05:39:00;9.43;;;8.23;;
3789;SDS011;1910;49.042;9.028;2022-07-23T05:41:26;11.90;;;8.57;;
3789;SDS011;1910;49.042;9.028;2022-07-23T05:43:52;12.60;;;9.07;;
3789;SDS011;1910;49.042;9.028;2022-07-23T05:46:17;9.93;;;7.63;;
3789;SDS011;1910;49.042;9.028;2022-07-23T05:48:43;11.93;;;9.83;;
3789;SDS011;1910;49.042;9.028;2022-07-23T05:51:11;12.23;;;9.00;;
3789;SDS011;1910;49.042;9.028;2022-07-23T05:53:37;18.27;;;11.30;;
3789;SDS011;1910;49.042;9.028;2022-07-23T05:56:03;12.90;;;9.97;;
3789;SDS011;1910;49.042;9.028;2022-07-23T05:58:29;12.80;;;10.33;;
3789;SDS011;1910;49.042;9.028;2022-07-23T06:00:54;12.80;;;10.60;;
3789;SDS011;1910;49.042;9.028;2022-07-23T06:03:20;14.17;;;11.67;;
3789;SDS011;1910;49.042;9.028;2022-07-23T06:05:45;11.70;;;9.50;;
3789;SDS011;1910;49.042;9.028;2022-07-23T06:08:11;15.23;;;11.63;;
3789;SDS011;1910;49.042;9.028;2022-07-23T06:10:37;13.60;;;10.90;;
3789;SDS011;1910;49.042;9.028;2022-07-23T06:13:02;11.50;;;10.30;;
3789;SDS011;1910;49.042;9.028;2022-07-23T06:15:28;18.80;;;10.93;;
3789;SDS011;1910;49.042;9.028;2022-07-23T06:17:55;16.37;;;11.60;;
3789;SDS011;1910;49.042;9.028;2022-07-23T06:20:20;19.53;;;11.47;;
3789;SDS011;1910;49.042;9.028;2022-07-23T06:22:46;17.73;;;11.40;;
3789;SDS011;1910;49.042;9.028;2022-07-23T06:25:11;16.73;;;12.70;;
3789;SDS011;1910;49.042;9.028;2022-07-23T06:27:37;15.20;;;12.10;;
3789;SDS011;1910;49.042;9.028;2022-07-23T06:30:03;16.13;;;11.57;;
3789;SDS011;1910;49.042;9.028;2022-07-23T06:32:29;11.63;;;10.43;;
3789;SDS011;1910;49.042;9.028;2022-07-23T06:34:54;13.67;;;11.10;;
3789;SDS011;1910;49.042;9.028;2022-07-23T06:37:20;16.00;;;11.37;;
3789;SDS011;1910;49.042;9.028;2022-07-23T06:39:46;17.53;;;11.17;;
3789;SDS011;1910;49.042;9.028;2022-07-23T06:42:12;12.50;;;9.80;;
3789;SDS011;1910;49.042;9.028;2022-07-23T06:44:37;13.67;;;10.70;;
3789;SDS011;1910;49.042;9.028;2022-07-23T06:47:03;14.77;;;11.33;;
3789;SDS011;1910;49.042;9.028;2022-07-23T06:49:29;15.00;;;11.40;;
3789;SDS011;1910;49.042;9.028;2022-07-23T06:51:55;13.57;;;11.80;;
3789;SDS011;1910;49.042;9.028;2022-07-23T06:54:20;17.20;;;13.43;;
3789;SDS011;1910;49.042;9.028;2022-07-23T06:56:46;14.33;;;12.13;;
3789;SDS011;1910;49.042;9.028;2022-07-23T06:59:12;16.30;;;11.70;;
3789;SDS011;1910;49.042;9.028;2022-07-23T07:01:37;16.77;;;12.23;;
3789;SDS011;1910;49.042;9.028;2022-07-23T07:04:03;14.30;;;11.27;;
3789;SDS011;1910;49.042;9.028;2022-07-23T07:06:28;16.03;;;11.83;;
3789;SDS011;1910;49.042;9.028;2022-07-23T07:08:54;17.10;;;11.17;;
3789;SDS011;1910;49.042;9.028;2022-07-23T07:11:21;11.40;;;10.20;;
3789;SDS011;1910;49.042;9.028;2022-07-23T07:13:48;12.70;;;10.67;;
3789;SDS011;1910;49.042;9.028;2022-07-23T07:16:14;15.10;;;11.93;;
3789;SDS011;1910;49.042;9.028;2022-07-23T07:18:39;13.13;;;11.67;;
3789;SDS011;1910;49.042;9.028;2022-07-23T07:21:05;16.27;;;12.00;;
3789;SDS011;1910;49.042;9.028;2022-07-23T07:23:31;14.50;;;11.77;;
3789;SDS011;1910;49.042;9.028;2022-07-23T07:25:57;19.03;;;11.90;;
3789;SDS011;1910;49.042;9.028;2022-07-23T07:28:28;14.60;;;10.97;;
3789;SDS011;1910;49.042;9.028;2022-07-23T07:30:54;14.13;;;11.20;;
3789;SDS011;1910;49.042;9.028;2022-07-23T07:33:20;13.70;;;10.20;;
3789;SDS011;1910;49.042;9.028;2022-07-23T07:35:46;13.33;;;10.53;;
3789;SDS011;1910;49.042;9.028;2022-07-23T07:38:12;11.70;;;10.50;;
3789;SDS011;1910;49.042;9.028;2022-07-23T07:40:38;12.30;;;10.33;;
3789;SDS011;1910;49.042;9.028;2022-07-23T07:43:03;11.40;;;9.53;;
3789;SDS011;1910;49.042;9.028;2022-07-23T07:45:29;11.67;;;10.57;;
3789;SDS011;1910;49.042;9.028;2022-07-23T07:47:55;9.23;;;7.80;;
3789;SDS011;1910;49.042;9.028;2022-07-23T07:50:21;8.33;;;7.23;;
3789;SDS011;1910;49.042;9.028;2022-07-23T07:52:46;9.83;;;8.83;;
3789;SDS011;1910;49.042;9.028;2022-07-23T07:55:12;10.20;;;9.00;;
3789;SDS011;1910;49.042;9.028;2022-07-23T07:57:39;10.20;;;8.77;;
3789;SDS011;1910;49.042;9.028;2022-07-23T08:00:05;9.10;;;8.20;;
3789;SDS011;1910;49.042;9.028;2022-07-23T08:02:42;11.80;;;9.23;;
3789;SDS011;1910;49.042;9.028;2022-07-23T08:05:12;16.77;;;11.67;;
3789;SDS011;1910;49.042;9.028;2022-07-23T08:07:39;14.20;;;10.60;;
3789;SDS011;1910;49.042;9.028;2022-07-23T08:10:06;17.17;;;10.63;;
3789;SDS011;1910;49.042;9.028;2022-07-23T08:12:43;11.93;;;10.63;;
3789;SDS011;1910;49.042;9.028;2022-07-23T08:15:14;11.60;;;10.40;;
3789;SDS011;1910;49.042;9.028;2022-07-23T08:17:41;12.07;;;10.73;;
3789;SDS011;1910;49.042;9.028;2022-07-23T08:20:08;14.93;;;11.90;;
3789;SDS011;1910;49.042;9.028;2022-07-23T08:22:45;13.50;;;12.00;;
3789;SDS011;1910;49.042;9.028;2022-07-23T08:25:13;12.30;;;11.00;;
3789;SDS011;1910;49.042;9.028;2022-07-23T08:27:39;18.03;;;12.33;;
3789;SDS011;1910;49.042;9.028;2022-07-23T08:30:04;16.80;;;13.03;;
3789;SDS011;1910;49.042;9.028;2022-07-23T08:32:31;17.23;;;12.90;;
3789;SDS011;1910;49.042;9.028;2022-07-23T08:34:56;17.13;;;13.53;;
3789;SDS011;1910;49.042;9.028;2022-07-23T08:37:22;18.30;;;12.80;;
3789;SDS011;1910;49.042;9.028;2022-07-23T08:39:48;17.73;;;13.27;;
3789;SDS011;1910;49.042;9.028;2022-07-23T08:42:14;17.47;;;13.37;;
3789;SDS011;1910;49.042;9.028;2022-07-23T08:44:41;19.43;;;12.47;;
3789;SDS011;1910;49.042;9.028;2022-07-23T08:47:09;15.03;;;10.27;;
3789;SDS011;1910;49.042;9.028;2022-07-23T08:49:35;16.13;;;11.70;;
3789;SDS011;1910;49.042;9.028;2022-07-23T08:52:02;14.43;;;11.33;;
3789;SDS011;1910;49.042;9.028;2022-07-23T08:54:28;13.50;;;12.10;;
3789;SDS011;1910;49.042;9.028;2022-07-23T08:56:53;16.10;;;13.03;;
3789;SDS011;1910;49.042;9.028;2022-07-23T08:59:19;16.80;;;14.13;;
3789;SDS011;1910;49.042;9.028;2022-07-23T09:01:45;16.60;;;12.73;;
3789;SDS011;1910;49.042;9.028;2022-07-23T09:04:11;13.87;;;11.83;;
3789;SDS011;1910;49.042;9.028;2022-07-23T09:06:38;14.37;;;12.70;;
3789;SDS011;1910;49.042;9.028;2022-07-23T09:09:17;15.10;;;11.30;;
3789;SDS011;1910;49.042;9.028;2022-07-23T09:12:01;11.10;;;9.13;;
3789;SDS011;1910;49.042;9.028;2022-07-23T09:17:11;8.30;;;7.50;;
3789;SDS011;1910;49.042;9.028;2022-07-23T09:19:41;9.43;;;8.43;;
3789;SDS011;1910;49.042;9.028;2022-07-23T09:22:26;7.40;;;6.70;;
3789;SDS011;1910;49.042;9.028;2022-07-23T09:25:05;8.23;;;7.07;;
3789;SDS011;1910;49.042;9.028;2022-07-23T09:30:26;8.83;;;8.03;;
3789;SDS011;1910;49.042;9.028;2022-07-23T09:38:16;10.53;;;9.43;;
3789;SDS011;1910;49.042;9.028;2022-07-23T09:40:43;10.83;;;9.63;;
3789;SDS011;1910;49.042;9.028;2022-07-23T09:43:09;11.23;;;10.23;;
3789;SDS011;1910;49.042;9.028;2022-07-23T09:45:35;10.07;;;9.17;;
3789;SDS011;1910;49.042;9.028;2022-07-23T09:48:13;11.80;;;10.90;;
3789;SDS011;1910;49.042;9.028;2022-07-23T09:50:43;9.23;;;8.50;;
3789;SDS011;1910;49.042;9.028;2022-07-23T09:53:10;11.13;;;10.13;;
3789;SDS011;1910;49.042;9.028;2022-07-23T09:55:48;10.70;;;9.80;;
3789;SDS011;1910;49.042;9.028;2022-07-23T09:58:15;10.10;;;9.30;;
3789;SDS011;1910;49.042;9.028;2022-07-23T10:00:42;11.20;;;10.30;;
3789;SDS011;1910;49.042;9.028;2022-07-23T10:03:09;11.43;;;10.53;;
3789;SDS011;1910;49.042;9.028;2022-07-23T10:05:36;11.20;;;10.10;;
3789;SDS011;1910;49.042;9.028;2022-07-23T10:08:02;11.53;;;10.57;;
3789;SDS011;1910;49.042;9.028;2022-07-23T10:10:29;11.27;;;10.30;;
3789;SDS011;1910;49.042;9.028;2022-07-23T10:12:56;10.43;;;9.43;;
3789;SDS011;1910;49.042;9.028;2022-07-23T10:15:22;10.03;;;9.23;;
3789;SDS011;1910;49.042;9.028;2022-07-23T10:17:50;10.67;;;9.80;;
3789;SDS011;1910;49.042;9.028;2022-07-23T10:20:15;10.43;;;9.40;;
3789;SDS011;1910;49.042;9.028;2022-07-23T10:22:53;9.87;;;9.13;;
3789;SDS011;1910;49.042;9.028;2022-07-23T10:25:28;10.00;;;9.20;;
3789;SDS011;1910;49.042;9.028;2022-07-23T10:33:54;9.57;;;8.67;;
3789;SDS011;1910;49.042;9.028;2022-07-23T10:36:59;9.83;;;8.93;;
3789;SDS011;1910;49.042;9.028;2022-07-23T10:40:10;8.80;;;7.83;;
3789;SDS011;1910;49.042;9.028;2022-07-23T10:42:38;10.30;;;7.03;;
3789;SDS011;1910;49.042;9.028;2022-07-23T10:45:50;9.57;;;8.60;;
3789;SDS011;1910;49.042;9.028;2022-07-23T10:47:53;10.63;;;8.30;;
3789;SDS011;1910;49.042;9.028;2022-07-23T10:57:59;9.20;;;8.00;;
3789;SDS011;1910;49.042;9.028;2022-07-23T11:00:26;9.20;;;8.37;;
3789;SDS011;1910;49.042;9.028;2022-07-23T11:03:04;8.93;;;8.03;;
3789;SDS011;1910;49.042;9.028;2022-07-23T11:05:49;8.90;;;8.00;;
3789;SDS011;1910;49.042;9.028;2022-07-23T11:08:16;10.50;;;7.97;;
3789;SDS011;1910;49.042;9.028;2022-07-23T11:13:30;9.40;;;8.50;;
3789;SDS011;1910;49.042;9.028;2022-07-23T11:24:06;9.37;;;8.47;;
3789;SDS011;1910;49.042;9.028;2022-07-23T11:31:54;8.07;;;7.27;;
3789;SDS011;1910;49.042;9.028;2022-07-23T11:34:32;8.93;;;8.03;;
3789;SDS011;1910;49.042;9.028;2022-07-23T11:37:04;9.47;;;8.30;;
3789;SDS011;1910;49.042;9.028;2022-07-23T11:39:32;8.67;;;7.70;;
3789;SDS011;1910;49.042;9.028;2022-07-23T11:41:58;9.20;;;8.30;;
3789;SDS011;1910;49.042;9.028;2022-07-23T11:44:29;10.93;;;9.50;;
3789;SDS011;1910;49.042;9.028;2022-07-23T11:47:01;10.50;;;9.20;;
3789;SDS011;1910;49.042;9.028;2022-07-23T11:49:28;10.30;;;9.30;;
3789;SDS011;1910;49.042;9.028;2022-07-23T11:52:04;12.07;;;10.43;;
3789;SDS011;1910;49.042;9.028;2022-07-23T11:57:35;12.90;;;10.00;;
3789;SDS011;1910;49.042;9.028;2022-07-23T12:02:32;11.27;;;10.17;;
3789;SDS011;1910;49.042;9.028;2022-07-23T12:04:57;11.03;;;9.60;;
3789;SDS011;1910;49.042;9.028;2022-07-23T12:07:30;12.37;;;10.37;;
3789;SDS011;1910;49.042;9.028;2022-07-23T12:10:10;9.23;;;8.33;;
3789;SDS011;1910;49.042;9.028;2022-07-23T12:15:14;11.43;;;10.23;;
3789;SDS011;1910;49.042;9.028;2022-07-23T12:17:42;12.13;;;10.63;;
3789;SDS011;1910;49.042;9.028;2022-07-23T12:20:12;10.33;;;9.33;;
3789;SDS011;1910;49.042;9.028;2022-07-23T12:22:44;11.30;;;9.50;;
3789;SDS011;1910;49.042;9.028;2022-07-23T12:25:18;11.13;;;10.03;;
3789;SDS011;1910;49.042;9.028;2022-07-23T12:27:45;13.63;;;11.83;;
3789;SDS011;1910;49.042;9.028;2022-07-23T12:30:24;10.43;;;9.27;;
3789;SDS011;1910;49.042;9.028;2022-07-23T12:32:52;12.50;;;9.53;;
3789;SDS011;1910;49.042;9.028;2022-07-23T12:35:19;10.90;;;9.50;;
3789;SDS011;1910;49.042;9.028;2022-07-23T12:37:46;12.37;;;9.30;;
3789;SDS011;1910;49.042;9.028;2022-07-23T12:40:33;9.77;;;8.33;;
3789;SDS011;1910;49.042;9.028;2022-07-23T12:43:07;11.37;;;9.07;;
3789;SDS011;1910;49.042;9.028;2022-07-23T12:45:46;8.47;;;7.77;;
3789;SDS011;1910;49.042;9.028;2022-07-23T12:50:52;9.37;;;8.30;;
3789;SDS011;1910;49.042;9.028;2022-07-23T12:56:03;10.20;;;9.20;;
3789;SDS011;1910;49.042;9.028;2022-07-23T12:58:47;10.53;;;8.37;;
3789;SDS011;1910;49.042;9.028;2022-07-23T13:01:27;9.87;;;8.87;;
3789;SDS011;1910;49.042;9.028;2022-07-23T13:06:35;12.77;;;8.53;;
3789;SDS011;1910;49.042;9.028;2022-07-23T13:09:09;12.43;;;9.23;;
3789;SDS011;1910;49.042;9.028;2022-07-23T13:11:37;11.77;;;9.07;;
3789;SDS011;1910;49.042;9.028;2022-07-23T13:14:04;12.30;;;8.30;;
3789;SDS011;1910;49.042;9.028;2022-07-23T13:16:30;14.90;;;10.60;;
3789;SDS011;1910;49.042;9.028;2022-07-23T13:18:57;12.33;;;9.70;;
3789;SDS011;1910;49.042;9.028;2022-07-23T13:21:23;10.23;;;8.23;;
3789;SDS011;1910;49.042;9.028;2022-07-23T13:23:50;10.60;;;8.47;;
3789;SDS011;1910;49.042;9.028;2022-07-23T13:26:16;12.80;;;8.90;;
3789;SDS011;1910;49.042;9.028;2022-07-23T13:28:42;10.10;;;9.20;;
3789;SDS011;1910;49.042;9.028;2022-07-23T13:31:08;12.70;;;9.70;;
3789;SDS011;1910;49.042;9.028;2022-07-23T13:33:34;9.37;;;8.57;;
3789;SDS011;1910;49.042;9.028;2022-07-23T13:35:59;12.63;;;10.03;;
3789;SDS011;1910;49.042;9.028;2022-07-23T13:38:28;11.63;;;8.93;;
3789;SDS011;1910;49.042;9.028;2022-07-23T13:40:54;10.33;;;9.23;;
3789;SDS011;1910;49.042;9.028;2022-07-23T13:43:22;21.07;;;10.60;;
3789;SDS011;1910;49.042;9.028;2022-07-23T13:45:48;10.70;;;9.60;;
3789;SDS011;1910;49.042;9.028;2022-07-23T13:48:15;10.57;;;9.53;;
3789;SDS011;1910;49.042;9.028;2022-07-23T13:50:42;10.07;;;9.03;;
3789;SDS011;1910;49.042;9.028;2022-07-23T13:53:10;12.20;;;9.50;;
3789;SDS011;1910;49.042;9.028;2022-07-23T13:55:37;11.20;;;10.10;;
3789;SDS011;1910;49.042;9.028;2022-07-23T13:58:04;10.47;;;9.40;;
3789;SDS011;1910;49.042;9.028;2022-07-23T14:00:31;12.43;;;9.40;;
3789;SDS011;1910;49.042;9.028;2022-07-23T14:02:58;10.70;;;9.60;;
3789;SDS011;1910;49.042;9.028;2022-07-23T14:05:24;11.30;;;9.90;;
3789;SDS011;1910;49.042;9.028;2022-07-23T14:07:50;11.00;;;9.90;;
3789;SDS011;1910;49.042;9.028;2022-07-23T14:10:17;11.23;;;9.73;;
3789;SDS011;1910;49.042;9.028;2022-07-23T14:12:44;11.53;;;10.17;;
3789;SDS011;1910;49.042;9.028;2022-07-23T14:15:10;10.93;;;9.97;;
3789;SDS011;1910;49.042;9.028;2022-07-23T14:17:39;12.50;;;11.20;;
3789;SDS011;1910;49.042;9.028;2022-07-23T14:20:06;9.97;;;9.17;;
3789;SDS011;1910;49.042;9.028;2022-07-23T14:22:33;12.40;;;10.40;;
3789;SDS011;1910;49.042;9.028;2022-07-23T14:24:59;11.70;;;10.50;;
3789;SDS011;1910;49.042;9.028;2022-07-23T14:27:25;12.20;;;11.00;;
3789;SDS011;1910;49.042;9.028;2022-07-23T14:29:52;12.60;;;10.90;;
3789;SDS011;1910;49.042;9.028;2022-07-23T14:32:18;11.77;;;10.60;;
3789;SDS011;1910;49.042;9.028;2022-07-23T14:34:44;13.17;;;11.97;;
3789;SDS011;1910;49.042;9.028;2022-07-23T14:37:10;11.60;;;10.30;;
3789;SDS011;1910;49.042;9.028;2022-07-23T14:39:37;13.93;;;10.40;;
3789;SDS011;1910;49.042;9.028;2022-07-23T14:42:03;15.60;;;12.23;;
3789;SDS011;1910;49.042;9.028;2022-07-23T14:44:29;10.87;;;9.87;;
3789;SDS011;1910;49.042;9.028;2022-07-23T14:46:55;13.83;;;11.17;;
3789;SDS011;1910;49.042;9.028;2022-07-23T14:49:20;11.80;;;10.60;;
3789;SDS011;1910;49.042;9.028;2022-07-23T14:51:46;14.30;;;10.80;;
3789;SDS011;1910;49.042;9.028;2022-07-23T14:54:12;11.47;;;10.27;;
3789;SDS011;1910;49.042;9.028;2022-07-23T14:56:38;11.37;;;10.30;;
3789;SDS011;1910;49.042;9.028;2022-07-23T14:59:06;11.43;;;10.40;;
3789;SDS011;1910;49.042;9.028;2022-07-23T15:01:32;13.47;;;11.10;;
3789;SDS011;1910;49.042;9.028;2022-07-23T15:03:58;12.03;;;10.83;;
3789;SDS011;1910;49.042;9.028;2022-07-23T15:06:23;12.00;;;10.87;;
3789;SDS011;1910;49.042;9.028;2022-07-23T15:08:49;11.53;;;10.33;;
3789;SDS011;1910;49.042;9.028;2022-07-23T15:11:15;15.77;;;11.33;;
3789;SDS011;1910;49.042;9.028;2022-07-23T15:13:41;10.77;;;9.70;;
3789;SDS011;1910;49.042;9.028;2022-07-23T15:16:06;10.60;;;9.60;;
3789;SDS011;1910;49.042;9.028;2022-07-23T15:18:33;10.30;;;9.10;;
3789;SDS011;1910;49.042;9.028;2022-07-23T15:20:59;10.83;;;9.87;;
3789;SDS011;1910;49.042;9.028;2022-07-23T15:23:26;12.57;;;11.07;;
3789;SDS011;1910;49.042;9.028;2022-07-23T15:25:56;12.47;;;11.17;;
3789;SDS011;1910;49.042;9.028;2022-07-23T15:28:22;11.50;;;10.53;;
3789;SDS011;1910;49.042;9.028;2022-07-23T15:30:48;12.17;;;10.40;;
3789;SDS011;1910;49.042;9.028;2022-07-23T15:33:15;11.97;;;10.77;;
3789;SDS011;1910;49.042;9.028;2022-07-23T15:35:41;10.80;;;9.83;;
3789;SDS011;1910;49.042;9.028;2022-07-23T15:38:06;11.53;;;10.33;;
3789;SDS011;1910;49.042;9.028;2022-07-23T15:40:32;10.40;;;9.40;;
3789;SDS011;1910;49.042;9.028;2022-07-23T15:42:57;12.93;;;10.67;;
3789;SDS011;1910;49.042;9.028;2022-07-23T15:45:23;16.90;;;11.57;;
3789;SDS011;1910;49.042;9.028;2022-07-23T15:47:48;12.80;;;10.70;;
3789;SDS011;1910;49.042;9.028;2022-07-23T15:50:15;11.77;;;10.57;;
3789;SDS011;1910;49.042;9.028;2022-07-23T15:52:41;13.23;;;10.73;;
3789;SDS011;1910;49.042;9.028;2022-07-23T15:55:06;13.37;;;11.20;;
3789;SDS011;1910;49.042;9.028;2022-07-23T15:57:35;12.40;;;11.20;;